Time;durP1;ratioP1;P1;durP2;ratioP2;P2;SDS_P1;SDS_P2;PMS_P1;PMS_P2;Temp;Humidity;BMP_temperature;BMP_pressure;BME280_temperature;BME280_humidity;BME280_pressure;Samples;Min_cycle;Max_cycle;Signal;HPM_P1;HPM_P2
2023/05/26 00:01:50;;;;;;;6.72;4.15;;;25.60;54.10;;;;;;5074520;28;20024;-73
2023/05/26 00:04:16;;;;;;;7.47;3.53;;;25.60;54.20;;;;;;5074425;28;20059;-76
2023/05/26 00:06:46;;;;;;;5.80;3.72;;;25.60;54.10;;;;;;5074475;28;20442;-74
2023/05/26 00:09:13;;;;;;;9.20;3.97;;;25.60;54.20;;;;;;5074402;28;20063;-75
2023/05/26 00:11:39;;;;;;;4.90;3.50;;;25.60;54.20;;;;;;5074238;28;20075;-75
2023/05/26 00:14:05;;;;;;;6.57;3.22;;;25.60;54.20;;;;;;5074268;28;20085;-74
2023/05/26 00:16:31;;;;;;;4.05;3.20;;;25.60;54.30;;;;;;5074462;28;20036;-76
2023/05/26 00:18:57;;;;;;;3.92;3.08;;;25.70;54.30;;;;;;5081481;28;20040;-76
2023/05/26 00:21:24;;;;;;;8.82;2.95;;;25.70;54.30;;;;;;5093247;28;20074;-74
2023/05/26 00:23:50;;;;;;;5.65;4.20;;;25.70;54.30;;;;;;5094059;28;20052;-74
2023/05/26 00:26:16;;;;;;;5.07;3.13;;;25.70;54.40;;;;;;5071351;28;20047;-75
2023/05/26 00:28:47;;;;;;;7.85;4.05;;;25.60;54.40;;;;;;5071497;28;20048;-74
2023/05/26 00:31:13;;;;;;;4.78;3.70;;;25.60;54.40;;;;;;5055102;28;20090;-75
2023/05/26 00:33:39;;;;;;;5.95;3.10;;;25.60;54.40;;;;;;5054750;28;20032;-74
2023/05/26 00:36:05;;;;;;;4.05;3.40;;;25.60;54.40;;;;;;5071536;28;20037;-74
2023/05/26 00:38:31;;;;;;;3.17;2.88;;;25.60;54.40;;;;;;5071718;28;20036;-75
2023/05/26 00:40:57;;;;;;;6.40;3.53;;;25.70;54.40;;;;;;5070977;28;20401;-75
2023/05/26 00:43:24;;;;;;;3.80;3.00;;;25.70;54.50;;;;;;5037692;28;20099;-76
2023/05/26 00:45:49;;;;;;;4.70;4.07;;;25.70;54.50;;;;;;5054557;28;20135;-76
2023/05/26 00:48:16;;;;;;;5.78;3.83;;;25.60;54.50;;;;;;5054648;28;20036;-76
2023/05/26 00:50:42;;;;;;;4.00;3.60;;;25.70;54.50;;;;;;5054455;28;20124;-76
2023/05/26 00:53:10;;;;;;;3.85;3.38;;;25.70;54.50;;;;;;5054484;28;20179;-75
2023/05/26 00:55:36;;;;;;;3.85;2.80;;;25.70;54.60;;;;;;5070999;28;20119;-75
2023/05/26 00:58:02;;;;;;;3.08;2.78;;;25.50;54.60;;;;;;5084928;28;20063;-74
2023/05/26 01:00:28;;;;;;;4.88;3.22;;;25.50;54.60;;;;;;5075666;28;20449;-75
2023/05/26 01:02:57;;;;;;;5.22;3.28;;;25.60;54.60;;;;;;5093656;28;20032;-74
2023/05/26 01:05:23;;;;;;;4.57;3.42;;;25.70;54.70;;;;;;5092350;28;20043;-76
2023/05/26 01:07:49;;;;;;;5.18;3.60;;;25.50;54.80;;;;;;5092466;28;20112;-76
2023/05/26 01:10:15;;;;;;;7.32;3.95;;;25.50;54.80;;;;;;5093694;28;20114;-76
2023/05/26 01:12:51;;;;;;;6.93;3.45;;;25.50;54.80;;;;;;5093591;28;20047;-75
2023/05/26 01:15:25;;;;;;;8.18;3.90;;;25.50;54.80;;;;;;5093280;28;20035;-74
2023/05/26 01:18:06;;;;;;;4.68;3.67;;;25.50;54.80;;;;;;5093276;28;20040;-76
2023/05/26 01:21:14;;;;;;;4.72;3.25;;;25.50;54.80;;;;;;5075466;28;20036;-77
2023/05/26 01:23:43;;;;;;;4.88;3.70;;;25.60;54.90;;;;;;5090681;28;20056;-76
2023/05/26 01:26:18;;;;;;;5.00;3.90;;;25.50;54.90;;;;;;5073718;28;20052;-76
2023/05/26 01:28:44;;;;;;;4.55;3.28;;;25.60;54.90;;;;;;5057382;28;20110;-76
2023/05/26 01:31:10;;;;;;;4.00;3.50;;;25.50;54.90;;;;;;5090672;28;20028;-77
2023/05/26 01:33:36;;;;;;;9.63;3.67;;;25.70;54.90;;;;;;5090349;28;20043;-75
2023/05/26 01:36:03;;;;;;;5.10;3.40;;;25.50;54.90;;;;;;5073477;28;20423;-76
2023/05/26 01:38:29;;;;;;;3.92;3.53;;;25.40;54.90;;;;;;5090350;28;20074;-76
2023/05/26 01:41:08;;;;;;;10.52;3.95;;;25.50;54.90;;;;;;5032854;28;20053;-76
2023/05/26 01:43:55;;;;;;;6.18;3.92;;;25.60;55.00;;;;;;5033582;28;20037;-74
2023/05/26 01:46:29;;;;;;;6.82;3.97;;;25.40;55.00;;;;;;5049989;28;20068;-76
2023/05/26 01:48:58;;;;;;;5.70;3.38;;;25.40;55.00;;;;;;5049981;28;20041;-74
2023/05/26 01:51:32;;;;;;;5.63;4.05;;;25.40;55.10;;;;;;5029088;28;20041;-76
2023/05/26 01:54:01;;;;;;;5.60;3.97;;;25.40;55.10;;;;;;5029759;28;20397;-75
2023/05/26 01:56:31;;;;;;;9.30;4.18;;;25.30;55.10;;;;;;5029508;28;20612;-76
2023/05/26 01:58:59;;;;;;;5.97;3.85;;;25.30;55.20;;;;;;5038376;28;20072;-75
2023/05/26 02:01:26;;;;;;;4.65;4.25;;;25.30;55.20;;;;;;5049473;28;20064;-76
2023/05/26 02:03:52;;;;;;;5.57;4.32;;;25.30;55.10;;;;;;5049479;28;20032;-76
2023/05/26 02:06:18;;;;;;;4.28;3.70;;;25.30;55.20;;;;;;5032870;28;20048;-76
2023/05/26 02:08:45;;;;;;;8.30;3.95;;;25.30;55.20;;;;;;5049596;28;20037;-75
2023/05/26 02:11:10;;;;;;;5.10;4.05;;;25.50;55.20;;;;;;5053839;28;20472;-74
2023/05/26 02:13:37;;;;;;;6.05;3.75;;;25.30;55.20;;;;;;5089738;28;20040;-76
2023/05/26 02:16:04;;;;;;;5.10;3.60;;;25.30;55.20;;;;;;5089893;28;20054;-76
2023/05/26 02:18:30;;;;;;;5.60;3.83;;;25.40;55.20;;;;;;5089568;28;20616;-75
2023/05/26 02:20:56;;;;;;;4.80;3.63;;;25.30;55.30;;;;;;5089581;28;20044;-75
2023/05/26 02:23:22;;;;;;;4.30;3.90;;;25.40;55.30;;;;;;5089141;28;20040;-76
2023/05/26 02:25:48;;;;;;;6.70;4.22;;;25.30;55.30;;;;;;5089314;28;20569;-74
2023/05/26 02:28:14;;;;;;;6.10;4.10;;;25.50;55.30;;;;;;5089522;28;20067;-74
2023/05/26 02:30:40;;;;;;;6.13;4.30;;;25.40;55.20;;;;;;5089530;28;20039;-76
2023/05/26 02:33:09;;;;;;;4.40;3.97;;;25.30;55.20;;;;;;5072512;28;20534;-75
2023/05/26 02:35:35;;;;;;;5.10;3.95;;;25.30;55.20;;;;;;5089466;28;20154;-75
2023/05/26 02:38:01;;;;;;;5.20;4.22;;;25.30;55.20;;;;;;5049144;28;20049;-75
2023/05/26 02:40:27;;;;;;;6.10;3.75;;;25.30;55.10;;;;;;5049110;28;20064;-76
2023/05/26 02:42:53;;;;;;;6.72;4.43;;;25.30;55.10;;;;;;5048865;28;20481;-74
2023/05/26 02:45:20;;;;;;;8.50;4.47;;;25.40;55.10;;;;;;5048801;28;20048;-75
2023/05/26 02:47:46;;;;;;;4.57;4.18;;;25.20;55.20;;;;;;5049184;28;20455;-76
2023/05/26 02:50:12;;;;;;;5.30;4.18;;;25.30;55.20;;;;;;5046136;28;20132;-75
2023/05/26 02:52:38;;;;;;;7.78;4.07;;;25.20;55.20;;;;;;5029194;28;20060;-74
2023/05/26 02:55:05;;;;;;;6.32;4.00;;;25.10;55.20;;;;;;5044562;28;20067;-75
2023/05/26 02:57:31;;;;;;;11.10;4.43;;;25.20;55.30;;;;;;5032186;28;20051;-76
2023/05/26 02:59:57;;;;;;;7.80;4.50;;;25.20;55.40;;;;;;5032218;28;20037;-76
2023/05/26 03:02:23;;;;;;;8.57;4.28;;;25.10;55.40;;;;;;5015841;28;20404;-74
2023/05/26 03:04:49;;;;;;;5.75;4.25;;;25.20;55.40;;;;;;5048625;28;20572;-76
2023/05/26 03:07:15;;;;;;;7.05;4.60;;;25.10;55.40;;;;;;5032145;28;20591;-74
2023/05/26 03:09:41;;;;;;;7.93;4.65;;;25.20;55.30;;;;;;5063355;28;20147;-76
2023/05/26 03:12:07;;;;;;;8.40;5.22;;;25.10;55.30;;;;;;5088985;28;20537;-75
2023/05/26 03:14:34;;;;;;;7.05;4.60;;;25.20;55.30;;;;;;5071884;28;20047;-75
2023/05/26 03:17:00;;;;;;;7.88;5.00;;;25.20;55.30;;;;;;5071901;28;20036;-75
2023/05/26 03:19:26;;;;;;;7.30;5.05;;;25.20;55.30;;;;;;5072282;28;20128;-75
2023/05/26 03:21:55;;;;;;;7.68;4.32;;;25.30;55.30;;;;;;5089848;28;20036;-74
2023/05/26 03:24:21;;;;;;;11.90;4.63;;;25.30;55.20;;;;;;5089995;28;20028;-75
2023/05/26 03:26:47;;;;;;;8.02;4.60;;;25.30;55.10;;;;;;5089983;28;20346;-75
2023/05/26 03:29:15;;;;;;;5.55;4.40;;;25.30;55.10;;;;;;5089911;28;20032;-75
2023/05/26 03:31:41;;;;;;;9.98;4.45;;;25.20;55.10;;;;;;5090308;28;20028;-74
2023/05/26 03:34:07;;;;;;;7.82;4.47;;;25.30;55.00;;;;;;5090886;28;20383;-75
2023/05/26 03:36:34;;;;;;;7.00;4.43;;;25.20;55.00;;;;;;5088781;28;20052;-75
2023/05/26 03:39:13;;;;;;;4.85;3.70;;;25.30;55.10;;;;;;5071723;28;20052;-71
2023/05/26 03:41:39;;;;;;;4.00;2.65;;;25.40;55.00;;;;;;5071788;28;20522;-76
2023/05/26 03:44:07;;;;;;;5.00;3.30;;;25.30;54.80;;;;;;5071740;28;20043;-78
2023/05/26 03:46:33;;;;;;;4.70;3.58;;;25.30;54.70;;;;;;5071794;28;20066;-78
2023/05/26 03:49:00;;;;;;;8.20;3.20;;;25.50;54.40;;;;;;5071520;28;20048;-76
2023/05/26 03:51:26;;;;;;;7.20;3.55;;;25.50;54.20;;;;;;5071762;28;20044;-77
2023/05/26 03:53:52;;;;;;;4.60;3.05;;;25.50;54.00;;;;;;5088075;28;20132;-76
2023/05/26 03:56:18;;;;;;;6.78;3.80;;;25.50;53.90;;;;;;5085417;28;20085;-76
2023/05/26 03:58:45;;;;;;;3.67;3.20;;;25.60;53.80;;;;;;5088501;28;20078;-76
2023/05/26 04:01:11;;;;;;;4.97;4.05;;;25.70;53.70;;;;;;5071563;28;20056;-73
2023/05/26 04:03:37;;;;;;;5.22;4.32;;;25.50;53.40;;;;;;5038036;28;20479;-73
2023/05/26 04:06:03;;;;;;;4.88;3.38;;;25.60;53.30;;;;;;5071598;28;20036;-71
2023/05/26 04:08:30;;;;;;;5.53;4.05;;;25.70;52.90;;;;;;5071610;28;20473;-71
2023/05/26 04:10:56;;;;;;;10.43;4.43;;;25.70;52.30;;;;;;5088103;28;20024;-73
2023/05/26 04:13:24;;;;;;;5.75;4.63;;;25.80;51.90;;;;;;5055021;28;20044;-71
2023/05/26 04:15:50;;;;;;;5.28;3.65;;;25.70;51.70;;;;;;5092489;28;20024;-71
2023/05/26 04:18:17;;;;;;;2.90;2.13;;;25.70;51.80;;;;;;5093257;28;20111;-70
2023/05/26 04:20:43;;;;;;;3.85;3.13;;;25.80;51.90;;;;;;5094364;28;20122;-70
2023/05/26 04:23:09;;;;;;;3.13;2.38;;;25.90;51.40;;;;;;5093742;28;20052;-70
2023/05/26 04:25:36;;;;;;;3.28;2.97;;;26.00;51.60;;;;;;5093057;28;20044;-70
2023/05/26 04:28:24;;;;;;;7.53;2.88;;;25.80;52.00;;;;;;5094173;28;20048;-71
2023/05/26 04:31:03;;;;;;;5.88;3.65;;;25.90;55.20;;;;;;5092883;28;20450;-71
2023/05/26 04:33:52;;;;;;;3.78;2.95;;;26.00;52.70;;;;;;5091675;28;20044;-69
2023/05/26 04:36:39;;;;;;;4.90;3.85;;;26.10;51.90;;;;;;5091321;28;20039;-71
2023/05/26 04:39:07;;;;;;;5.63;3.80;;;26.10;52.50;;;;;;5091320;28;20040;-73
2023/05/26 04:41:33;;;;;;;5.60;3.08;;;26.00;51.90;;;;;;5091712;28;20195;-70
2023/05/26 04:44:00;;;;;;;4.40;3.72;;;26.00;50.90;;;;;;5074662;28;20089;-70
2023/05/26 04:46:28;;;;;;;11.95;3.60;;;26.10;50.80;;;;;;5091250;28;20126;-70
2023/05/26 04:48:57;;;;;;;4.55;1.98;;;26.00;51.50;;;;;;5091754;28;20040;-71
2023/05/26 04:51:24;;;;;;;8.15;4.97;;;26.00;51.20;;;;;;5091205;28;20211;-71
2023/05/26 04:53:51;;;;;;;7.85;5.43;;;26.00;52.20;;;;;;5091206;28;20036;-71
2023/05/26 04:56:17;;;;;;;9.25;5.28;;;26.00;52.40;;;;;;5074119;28;20047;-70
2023/05/26 04:58:51;;;;;;;9.98;5.35;;;26.00;52.30;;;;;;5091334;28;20040;-73
2023/05/26 05:01:17;;;;;;;9.55;6.05;;;26.20;52.80;;;;;;5091269;28;20186;-71
2023/05/26 05:03:52;;;;;;;8.30;5.55;;;26.20;51.80;;;;;;5091294;28;20131;-72
2023/05/26 05:06:25;;;;;;;6.75;4.82;;;26.00;52.10;;;;;;5050521;28;20154;-70
2023/05/26 05:08:51;;;;;;;9.13;7.45;;;26.10;51.70;;;;;;5050409;28;20043;-68
2023/05/26 05:11:17;;;;;;;10.00;6.85;;;26.00;49.40;;;;;;5050432;28;20080;-72
2023/05/26 05:13:44;;;;;;;11.18;6.90;;;26.00;49.40;;;;;;5050840;28;20057;-71
2023/05/26 05:16:10;;;;;;;7.05;5.95;;;25.90;49.40;;;;;;5033754;28;20764;-72
2023/05/26 05:18:36;;;;;;;10.18;6.38;;;25.80;49.30;;;;;;5033719;28;20032;-72
2023/05/26 05:21:04;;;;;;;10.85;6.60;;;25.90;49.50;;;;;;5017441;28;20087;-72
2023/05/26 05:23:34;;;;;;;10.75;6.53;;;25.80;49.10;;;;;;5050196;28;20120;-71
2023/05/26 05:26:01;;;;;;;11.35;7.75;;;25.80;50.40;;;;;;5033048;28;20064;-72
2023/05/26 05:28:29;;;;;;;12.07;7.07;;;26.00;51.00;;;;;;5016557;28;20045;-72
2023/05/26 05:31:14;;;;;;;6.60;4.57;;;25.80;50.00;;;;;;5050325;28;20041;-73
2023/05/26 05:33:42;;;;;;;10.02;5.95;;;25.90;49.70;;;;;;5050250;28;20038;-73
2023/05/26 05:36:09;;;;;;;12.13;6.63;;;25.90;49.40;;;;;;5050087;28;20116;-72
2023/05/26 05:38:35;;;;;;;10.85;6.50;;;25.90;49.80;;;;;;5072832;28;20147;-72
2023/05/26 05:41:01;;;;;;;10.00;7.35;;;26.00;50.40;;;;;;5091093;28;20392;-74
2023/05/26 05:43:28;;;;;;;8.55;6.55;;;25.80;49.70;;;;;;5093209;28;20051;-73
2023/05/26 05:45:55;;;;;;;10.07;7.60;;;25.90;49.40;;;;;;5093678;28;20368;-74
2023/05/26 05:48:42;;;;;;;14.00;8.15;;;25.90;49.40;;;;;;5091960;28;20071;-71
2023/05/26 05:51:19;;;;;;;8.95;6.68;;;26.00;49.50;;;;;;5093597;28;20053;-73
2023/05/26 05:53:46;;;;;;;10.13;7.40;;;26.00;49.90;;;;;;5069323;28;20045;-71
2023/05/26 05:56:13;;;;;;;10.00;6.57;;;26.00;49.90;;;;;;5052753;28;20122;-71
2023/05/26 05:58:39;;;;;;;10.73;6.72;;;26.00;50.10;;;;;;5033916;28;20391;-71
2023/05/26 06:01:05;;;;;;;11.25;7.93;;;26.10;50.00;;;;;;5069736;28;20036;-73
2023/05/26 06:03:31;;;;;;;10.77;7.75;;;26.10;49.80;;;;;;5052941;28;20139;-74
2023/05/26 06:05:57;;;;;;;10.30;6.80;;;26.00;49.90;;;;;;5069323;28;20111;-72
2023/05/26 06:08:23;;;;;;;10.52;7.78;;;26.10;49.90;;;;;;5069700;28;20444;-72
2023/05/26 06:10:50;;;;;;;8.15;6.20;;;26.10;50.00;;;;;;5069486;28;20036;-72
2023/05/26 06:13:16;;;;;;;12.32;8.15;;;26.00;50.10;;;;;;5069282;28;20407;-72
2023/05/26 06:15:42;;;;;;;12.07;8.30;;;26.00;50.20;;;;;;5069127;28;20044;-77
2023/05/26 06:18:08;;;;;;;12.27;7.97;;;26.10;52.00;;;;;;5052536;28;20090;-76
2023/05/26 06:20:34;;;;;;;10.20;7.57;;;26.40;53.70;;;;;;5052843;28;20392;-74
2023/05/26 06:23:00;;;;;;;12.68;8.32;;;26.50;52.80;;;;;;5052498;28;20053;-74
2023/05/26 06:25:27;;;;;;;11.18;7.80;;;26.60;48.40;;;;;;5087012;28;20495;-75
2023/05/26 06:27:54;;;;;;;15.63;8.52;;;26.40;48.60;;;;;;5090524;28;20043;-75
2023/05/26 06:30:20;;;;;;;10.10;6.70;;;26.40;48.80;;;;;;5090792;28;20039;-74
2023/05/26 06:32:52;;;;;;;11.75;8.18;;;26.30;49.60;;;;;;5090708;28;20048;-75
2023/05/26 06:35:18;;;;;;;12.75;6.93;;;26.40;49.80;;;;;;5091503;28;20024;-77
2023/05/26 06:37:45;;;;;;;11.98;7.60;;;26.30;49.70;;;;;;5089944;28;20040;-75
2023/05/26 06:40:12;;;;;;;11.65;8.10;;;26.30;49.70;;;;;;5090445;28;20495;-76
2023/05/26 06:42:39;;;;;;;11.23;7.78;;;26.30;49.60;;;;;;5073777;28;20429;-76
2023/05/26 06:45:05;;;;;;;12.43;8.65;;;26.40;49.30;;;;;;5090218;28;20040;-75
2023/05/26 06:47:32;;;;;;;8.57;6.18;;;26.40;49.10;;;;;;5073631;28;20032;-75
2023/05/26 06:50:11;;;;;;;17.65;8.40;;;26.40;48.80;;;;;;5090712;28;20038;-77
2023/05/26 06:52:37;;;;;;;12.20;8.90;;;26.40;48.10;;;;;;5072556;28;20068;-76
2023/05/26 06:55:04;;;;;;;12.48;7.57;;;26.40;48.30;;;;;;5090031;28;20059;-76
2023/05/26 06:57:30;;;;;;;13.52;8.23;;;26.40;48.40;;;;;;5073459;28;20042;-77
2023/05/26 06:59:57;;;;;;;10.82;7.00;;;26.40;48.30;;;;;;5073248;28;20047;-76
2023/05/26 07:02:24;;;;;;;10.13;6.15;;;26.30;49.40;;;;;;5090399;28;20373;-76
2023/05/26 07:04:57;;;;;;;14.45;8.13;;;26.30;50.50;;;;;;5090047;28;20064;-76
2023/05/26 07:07:23;;;;;;;8.48;7.32;;;26.30;49.70;;;;;;5073815;28;20044;-77
2023/05/26 07:09:49;;;;;;;11.15;7.88;;;26.30;49.40;;;;;;5069995;28;20025;-75
2023/05/26 07:12:16;;;;;;;14.27;8.45;;;26.40;49.40;;;;;;5069863;28;20538;-77
2023/05/26 07:14:46;;;;;;;12.30;6.07;;;26.20;49.60;;;;;;5070139;28;20090;-77
2023/05/26 07:17:14;;;;;;;13.30;7.07;;;26.10;49.80;;;;;;5053166;28;20371;-76
2023/05/26 07:19:43;;;;;;;11.68;7.72;;;26.10;49.50;;;;;;5070001;28;20045;-77
2023/05/26 07:22:09;;;;;;;10.60;5.82;;;26.30;49.70;;;;;;5053266;28;20064;-77
2023/05/26 07:24:42;;;;;;;12.23;6.93;;;26.30;50.60;;;;;;5069885;28;20033;-73
2023/05/26 07:27:09;;;;;;;8.30;6.85;;;26.20;50.40;;;;;;5069712;28;20029;-75
2023/05/26 07:29:37;;;;;;;14.23;7.57;;;26.20;50.20;;;;;;5069765;28;20441;-75
2023/05/26 07:32:03;;;;;;;9.70;7.05;;;26.20;49.70;;;;;;5069654;28;20813;-73
2023/05/26 07:34:29;;;;;;;9.07;7.43;;;26.40;49.60;;;;;;5069549;28;20059;-73
2023/05/26 07:36:55;;;;;;;10.40;6.82;;;26.20;49.50;;;;;;5069186;28;20072;-73
2023/05/26 07:39:21;;;;;;;11.70;7.22;;;26.20;49.40;;;;;;5069458;28;20058;-74
2023/05/26 07:41:47;;;;;;;9.38;7.68;;;26.30;49.40;;;;;;5070743;28;20042;-73
2023/05/26 07:44:13;;;;;;;6.97;5.82;;;26.20;49.30;;;;;;5077401;28;20063;-78
2023/05/26 07:46:39;;;;;;;11.32;6.32;;;26.40;49.10;;;;;;5090764;28;20024;-74
2023/05/26 07:49:05;;;;;;;9.68;6.60;;;26.30;49.10;;;;;;5090853;28;20086;-73
2023/05/26 07:51:32;;;;;;;6.43;4.97;;;26.30;49.00;;;;;;5093829;28;20067;-72
2023/05/26 07:53:58;;;;;;;10.57;5.88;;;26.20;49.00;;;;;;5094880;28;20028;-72
2023/05/26 07:56:24;;;;;;;8.25;6.20;;;26.30;49.20;;;;;;5094710;28;20598;-73
2023/05/26 07:58:50;;;;;;;5.50;4.93;;;26.30;49.40;;;;;;5109402;28;20122;-73
2023/05/26 08:01:16;;;;;;;6.90;4.70;;;26.30;49.30;;;;;;5093435;28;20479;-75
2023/05/26 08:03:42;;;;;;;9.98;6.13;;;26.30;49.20;;;;;;5094611;28;20035;-73
2023/05/26 08:06:08;;;;;;;6.95;5.65;;;26.20;49.10;;;;;;5088827;28;20437;-74
2023/05/26 08:08:34;;;;;;;7.00;5.53;;;26.10;49.50;;;;;;5074267;28;20036;-73
2023/05/26 08:11:00;;;;;;;6.53;5.80;;;26.20;50.50;;;;;;5074523;28;20037;-76
2023/05/26 08:13:26;;;;;;;8.85;6.07;;;26.20;51.30;;;;;;5074211;28;20510;-75
2023/05/26 08:15:52;;;;;;;6.68;5.35;;;26.30;53.10;;;;;;5074140;28;20433;-75
2023/05/26 08:18:18;;;;;;;10.95;5.18;;;26.30;53.90;;;;;;5085677;28;20097;-73
2023/05/26 08:20:44;;;;;;;7.40;6.05;;;26.30;54.60;;;;;;5094247;28;20486;-72
2023/05/26 08:23:10;;;;;;;6.82;5.60;;;26.50;56.50;;;;;;5092836;28;20040;-74
2023/05/26 08:25:36;;;;;;;11.40;4.63;;;26.90;56.30;;;;;;5094158;28;20028;-72
2023/05/26 08:28:02;;;;;;;7.40;6.07;;;26.90;54.60;;;;;;5093193;28;20123;-75
2023/05/26 08:30:28;;;;;;;10.30;5.95;;;26.80;54.60;;;;;;5092938;28;20135;-75
2023/05/26 08:32:54;;;;;;;12.57;6.10;;;26.70;53.10;;;;;;5093144;28;20384;-73
2023/05/26 08:35:20;;;;;;;11.68;5.68;;;26.70;53.70;;;;;;5093953;28;20116;-74
2023/05/26 08:37:46;;;;;;;11.05;5.80;;;26.60;53.30;;;;;;5092822;28;20043;-76
2023/05/26 08:40:14;;;;;;;9.00;5.22;;;26.50;53.90;;;;;;5094230;28;20107;-74
2023/05/26 08:42:45;;;;;;;10.13;5.88;;;26.50;54.10;;;;;;5092853;28;20031;-74
2023/05/26 08:45:12;;;;;;;6.57;4.70;;;26.60;53.60;;;;;;5094165;28;20044;-74
2023/05/26 08:47:41;;;;;;;9.88;6.32;;;26.60;52.50;;;;;;5094247;28;20102;-73
2023/05/26 08:50:09;;;;;;;11.05;5.80;;;26.60;54.20;;;;;;5094284;28;20468;-74
2023/05/26 08:52:37;;;;;;;10.23;6.32;;;26.50;54.00;;;;;;5092477;28;20441;-72
2023/05/26 08:55:05;;;;;;;11.95;5.93;;;26.60;53.00;;;;;;5094008;28;20369;-71
2023/05/26 08:57:32;;;;;;;7.53;5.57;;;26.80;51.20;;;;;;5093533;28;20072;-72
2023/05/26 08:59:58;;;;;;;5.10;4.60;;;26.80;51.30;;;;;;5093638;28;20151;-74
2023/05/26 09:02:24;;;;;;;8.25;4.97;;;26.70;51.00;;;;;;5093026;28;20035;-73
2023/05/26 09:04:51;;;;;;;14.15;5.18;;;26.70;51.10;;;;;;5070774;28;20058;-73
2023/05/26 09:07:18;;;;;;;7.22;4.50;;;26.70;51.10;;;;;;5070491;28;20123;-72
2023/05/26 09:09:46;;;;;;;10.88;4.95;;;26.80;51.00;;;;;;5054217;28;20075;-74
2023/05/26 09:12:12;;;;;;;6.68;5.28;;;26.80;51.20;;;;;;5070710;28;20068;-74
2023/05/26 09:14:40;;;;;;;7.78;5.35;;;26.60;51.20;;;;;;5070602;28;20029;-73
2023/05/26 09:17:06;;;;;;;8.70;4.70;;;26.70;51.60;;;;;;5053907;28;20037;-74
2023/05/26 09:19:33;;;;;;;7.28;5.57;;;26.70;53.00;;;;;;5070485;28;20048;-74
2023/05/26 09:22:09;;;;;;;8.55;5.35;;;26.70;50.80;;;;;;5070368;28;20040;-74
2023/05/26 09:24:47;;;;;;;7.45;5.65;;;26.70;50.10;;;;;;5053760;28;20071;-72
2023/05/26 09:27:23;;;;;;;9.93;5.43;;;26.90;51.30;;;;;;5053787;28;20456;-72
2023/05/26 09:29:58;;;;;;;9.32;5.00;;;27.00;53.30;;;;;;5070328;28;20117;-72
2023/05/26 09:32:28;;;;;;;6.40;5.18;;;27.10;51.30;;;;;;5070231;28;20028;-74
2023/05/26 09:35:00;;;;;;;9.32;4.97;;;27.00;51.10;;;;;;5070103;28;20075;-72
2023/05/26 09:37:30;;;;;;;8.32;4.60;;;26.90;50.20;;;;;;5070145;28;20040;-72
2023/05/26 09:40:20;;;;;;;7.60;4.72;;;26.80;50.30;;;;;;5055838;28;20102;-71
2023/05/26 09:42:51;;;;;;;6.93;4.30;;;26.80;50.80;;;;;;5071551;28;20040;-73
2023/05/26 09:45:17;;;;;;;5.88;4.50;;;26.80;50.90;;;;;;5083901;28;20040;-70
2023/05/26 09:47:43;;;;;;;7.75;4.38;;;26.80;51.40;;;;;;5076507;28;20514;-71
2023/05/26 09:50:09;;;;;;;6.70;4.22;;;26.80;51.50;;;;;;5110129;28;20052;-71
2023/05/26 09:52:36;;;;;;;13.85;6.82;;;26.80;55.90;;;;;;5092980;28;20527;-75
2023/05/26 09:55:03;;;;;;;6.43;4.55;;;27.50;60.20;;;;;;5093321;28;20048;-73
2023/05/26 09:57:32;;;;;;;5.50;4.40;;;28.00;55.60;;;;;;5110348;28;20495;-73
2023/05/26 10:00:01;;;;;;;5.55;3.83;;;27.80;51.60;;;;;;5109963;28;20487;-72
2023/05/26 10:02:29;;;;;;;5.35;3.47;;;27.60;52.00;;;;;;5092666;28;20039;-72
2023/05/26 10:04:57;;;;;;;6.25;3.15;;;27.40;51.60;;;;;;5075600;28;20043;-72
2023/05/26 10:07:25;;;;;;;7.93;3.70;;;27.50;52.10;;;;;;5109828;28;20096;-74
2023/05/26 10:09:53;;;;;;;7.57;4.72;;;27.40;54.70;;;;;;5109893;28;20082;-73
2023/05/26 10:12:26;;;;;;;7.30;4.07;;;27.50;53.40;;;;;;5092477;28;20470;-72
2023/05/26 10:14:53;;;;;;;7.70;5.25;;;27.30;52.20;;;;;;5109725;28;20047;-74
2023/05/26 10:17:21;;;;;;;7.30;4.85;;;27.30;52.00;;;;;;5110008;28;20503;-73
2023/05/26 10:19:48;;;;;;;5.35;4.60;;;27.10;51.80;;;;;;5109758;28;20027;-73
2023/05/26 10:22:23;;;;;;;6.25;3.97;;;27.10;51.70;;;;;;5071493;28;20508;-70
2023/05/26 10:25:24;;;;;;;6.43;4.72;;;27.00;51.80;;;;;;5071594;28;20036;-72
2023/05/26 10:28:23;;;;;;;7.43;4.55;;;27.10;51.20;;;;;;5084258;28;20837;-73
2023/05/26 10:31:00;;;;;;;5.35;3.97;;;27.10;52.00;;;;;;5091931;28;20036;-72
2023/05/26 10:33:42;;;;;;;12.80;4.65;;;27.00;52.80;;;;;;5091759;28;20040;-73
2023/05/26 10:36:14;;;;;;;5.13;4.63;;;27.00;52.00;;;;;;5091964;28;20028;-73
2023/05/26 10:38:44;;;;;;;4.93;4.10;;;26.90;51.70;;;;;;5107524;28;20036;-74
2023/05/26 10:41:12;;;;;;;4.80;3.95;;;26.90;51.80;;;;;;5090085;28;20557;-72
2023/05/26 10:43:39;;;;;;;6.57;4.30;;;26.80;52.10;;;;;;5070280;28;20062;-74
2023/05/26 10:46:06;;;;;;;9.65;4.35;;;26.90;52.20;;;;;;5071490;28;20081;-73
2023/05/26 10:48:39;;;;;;;4.57;3.42;;;26.90;52.30;;;;;;5071007;28;20116;-74
2023/05/26 10:51:06;;;;;;;6.07;3.97;;;26.80;52.40;;;;;;5081243;28;20039;-73
2023/05/26 10:53:35;;;;;;;7.68;3.92;;;26.80;52.40;;;;;;5091430;28;20039;-74
2023/05/26 10:56:03;;;;;;;6.88;4.25;;;26.80;52.40;;;;;;5090281;28;20075;-74
2023/05/26 10:58:38;;;;;;;4.75;3.63;;;26.80;52.10;;;;;;5089842;28;20032;-77
2023/05/26 11:01:16;;;;;;;8.30;3.88;;;26.70;51.70;;;;;;5090398;28;20055;-75
2023/05/26 11:03:46;;;;;;;4.00;2.70;;;26.70;51.30;;;;;;5090903;28;20085;-71
2023/05/26 11:06:16;;;;;;;4.00;3.42;;;26.80;52.70;;;;;;5091280;28;20036;-73
2023/05/26 11:08:49;;;;;;;4.70;2.83;;;26.90;50.70;;;;;;5091014;28;20032;-72
2023/05/26 11:11:39;;;;;;;5.13;3.05;;;27.00;53.10;;;;;;5091176;28;20497;-74
2023/05/26 11:14:10;;;;;;;5.35;3.28;;;27.00;54.40;;;;;;5072911;28;20042;-72
2023/05/26 11:16:39;;;;;;;3.38;2.65;;;27.30;53.70;;;;;;5091205;28;20491;-75
2023/05/26 11:19:07;;;;;;;4.05;3.38;;;27.30;53.30;;;;;;5091011;28;20028;-73
2023/05/26 11:21:35;;;;;;;4.18;3.42;;;27.30;50.60;;;;;;5090886;28;20420;-73
2023/05/26 11:24:03;;;;;;;4.15;3.40;;;27.20;50.20;;;;;;5091587;28;20060;-73
2023/05/26 11:26:31;;;;;;;5.65;3.55;;;27.30;50.50;;;;;;5095471;28;20048;-77
2023/05/26 11:28:59;;;;;;;5.97;3.78;;;27.20;51.00;;;;;;5095306;28;20479;-73
2023/05/26 11:31:26;;;;;;;4.57;3.40;;;27.00;51.70;;;;;;5094179;28;20068;-75
2023/05/26 11:33:53;;;;;;;7.80;3.05;;;27.00;51.60;;;;;;5077430;28;20507;-73
2023/05/26 11:36:20;;;;;;;3.45;3.10;;;26.90;50.60;;;;;;5095572;28;20107;-74
2023/05/26 11:38:54;;;;;;;8.65;3.50;;;27.00;51.10;;;;;;5093839;28;20415;-76
2023/05/26 11:41:25;;;;;;;6.45;3.60;;;26.90;50.80;;;;;;5095141;28;20036;-73
2023/05/26 11:43:54;;;;;;;4.30;3.63;;;26.80;51.10;;;;;;5093085;28;20024;-73
2023/05/26 11:46:21;;;;;;;4.38;3.60;;;27.00;52.40;;;;;;5093739;28;20032;-74
2023/05/26 11:48:48;;;;;;;4.25;3.72;;;26.70;51.90;;;;;;5094672;28;20039;-70
2023/05/26 11:51:19;;;;;;;3.72;3.28;;;26.60;52.00;;;;;;5110657;28;20040;-74
2023/05/26 11:53:51;;;;;;;10.95;3.38;;;26.80;52.50;;;;;;5094986;28;20028;-74
2023/05/26 11:56:17;;;;;;;6.22;3.55;;;26.80;52.50;;;;;;5094728;28;20036;-74
2023/05/26 11:58:48;;;;;;;5.45;3.45;;;26.70;53.10;;;;;;5094506;28;20497;-74
2023/05/26 12:01:15;;;;;;;4.05;3.10;;;26.90;56.60;;;;;;5094811;28;20040;-77
2023/05/26 12:03:44;;;;;;;3.90;3.03;;;26.70;56.90;;;;;;5094769;28;20043;-74
2023/05/26 12:06:19;;;;;;;5.30;3.03;;;26.70;55.50;;;;;;5094648;28;20093;-73
2023/05/26 12:08:52;;;;;;;5.00;3.10;;;26.70;54.90;;;;;;5094423;28;20561;-74
2023/05/26 12:11:22;;;;;;;;;;;26.80;54.10;;;;;;5093436;28;20040;-74
2023/05/26 12:13:55;;;;;;;3.53;3.22;;;26.70;53.90;;;;;;5091354;28;19941;-73
2023/05/26 12:16:22;;;;;;;3.85;2.97;;;26.80;53.80;;;;;;5094229;28;20024;-73
2023/05/26 12:18:53;;;;;;;9.63;3.10;;;26.70;53.60;;;;;;5091875;28;20055;-74
2023/05/26 12:21:20;;;;;;;3.67;3.30;;;26.80;53.50;;;;;;5094057;28;20042;-74
2023/05/26 12:23:46;;;;;;;4.15;3.70;;;26.80;53.70;;;;;;5094346;28;20052;-73
2023/05/26 12:26:25;;;;;;;6.22;3.78;;;26.80;53.70;;;;;;5094369;28;20032;-73
2023/05/26 12:29:11;;;;;;;7.60;3.58;;;26.70;53.60;;;;;;5093904;28;20078;-74
2023/05/26 12:31:41;;;;;;;4.30;3.63;;;26.90;53.70;;;;;;5093962;28;20115;-73
2023/05/26 12:34:15;;;;;;;2.75;2.08;;;26.80;53.60;;;;;;5094138;28;20032;-74
2023/05/26 12:36:41;;;;;;;9.65;3.63;;;26.90;53.70;;;;;;5091628;28;20032;-75
2023/05/26 12:39:08;;;;;;;3.20;2.67;;;26.90;54.00;;;;;;5093694;28;20106;-74
2023/05/26 12:41:35;;;;;;;7.13;2.63;;;26.90;55.60;;;;;;5093585;28;20036;-74
2023/05/26 12:44:02;;;;;;;5.40;3.70;;;26.80;56.10;;;;;;5093977;28;20063;-73
2023/05/26 12:46:29;;;;;;;2.50;2.30;;;26.80;56.40;;;;;;5093862;28;20043;-74
2023/05/26 12:48:56;;;;;;;4.80;2.97;;;26.80;56.80;;;;;;5093501;28;20601;-72
2023/05/26 12:51:22;;;;;;;2.97;2.67;;;26.80;56.90;;;;;;5088517;28;20028;-72
2023/05/26 12:53:49;;;;;;;7.30;3.47;;;26.80;57.60;;;;;;5084782;28;20539;-74